createdAt,value
2022-07-27T00:01:34.144Z,94.40
2022-07-27T00:04:03.896Z,94.50
2022-07-27T00:06:32.206Z,94.70
2022-07-27T00:09:00.590Z,94.90
2022-07-27T00:11:28.970Z,95.10
2022-07-27T00:13:57.476Z,95.10
2022-07-27T00:16:25.884Z,94.90
2022-07-27T00:18:54.563Z,95.00
2022-07-27T00:21:26.582Z,95.20
2022-07-27T00:23:55.194Z,95.10
2022-07-27T00:26:23.529Z,95.20
2022-07-27T00:28:52.210Z,95.20
2022-07-27T00:31:20.525Z,95.20
2022-07-27T00:33:48.898Z,95.20
2022-07-27T00:36:17.236Z,95.40
2022-07-27T00:38:46.871Z,95.50
2022-07-27T00:41:15.227Z,95.70
2022-07-27T00:43:54.481Z,95.70
2022-07-27T00:46:23.216Z,95.80
2022-07-27T00:48:51.960Z,95.80
2022-07-27T00:51:22.139Z,96.10
2022-07-27T00:53:53.637Z,96.20
2022-07-27T00:56:22.860Z,96.20
2022-07-27T00:58:52.720Z,96.10
2022-07-27T01:01:21.736Z,96.10
2022-07-27T01:03:50.166Z,96.00
2022-07-27T01:06:27.339Z,96.30
2022-07-27T01:09:13.642Z,96.30
2022-07-27T01:11:42.386Z,96.50
2022-07-27T01:14:11.501Z,96.60
2022-07-27T01:16:39.915Z,96.70
2022-07-27T01:19:10.756Z,96.70
2022-07-27T01:21:40.827Z,96.80
2022-07-27T01:24:09.493Z,96.80
2022-07-27T01:26:39.291Z,96.90
2022-07-27T01:29:07.689Z,97.00
2022-07-27T01:31:36.254Z,97.20
2022-07-27T01:34:06.192Z,97.40
2022-07-27T01:36:34.594Z,97.60
2022-07-27T01:39:04.945Z,97.60
2022-07-27T01:41:33.300Z,97.70
2022-07-27T01:44:01.628Z,97.90
2022-07-27T01:46:30.077Z,98.00
2022-07-27T01:48:58.718Z,98.10
2022-07-27T01:51:27.249Z,98.20
2022-07-27T01:53:55.594Z,98.30
2022-07-27T01:56:25.483Z,98.40
2022-07-27T01:58:55.149Z,98.60
2022-07-27T02:01:23.981Z,98.70
2022-07-27T02:03:52.695Z,99.00
2022-07-27T02:06:21.083Z,99.10
2022-07-27T02:08:50.395Z,99.10
2022-07-27T02:11:36.216Z,99.30
2022-07-27T02:14:05.883Z,99.40
2022-07-27T02:16:34.184Z,99.70
2022-07-27T02:19:04.708Z,99.80
2022-07-27T02:21:33.658Z,99.90
2022-07-27T02:24:02.118Z,99.90
2022-07-27T02:26:30.458Z,99.90
2022-07-27T02:28:58.791Z,99.90
2022-07-27T02:31:32.818Z,99.90
2022-07-27T02:34:01.663Z,99.90
2022-07-27T02:36:30.098Z,99.90
2022-07-27T02:38:59.009Z,99.90
2022-07-27T02:41:27.395Z,99.90
2022-07-27T02:43:55.707Z,99.90
2022-07-27T02:46:24.075Z,99.90
2022-07-27T02:48:54.047Z,99.90
2022-07-27T02:51:22.368Z,99.90
2022-07-27T02:53:51.055Z,99.90
2022-07-27T02:56:19.331Z,99.90
2022-07-27T02:58:55.141Z,99.90
2022-07-27T03:01:24.649Z,99.90
2022-07-27T03:03:54.458Z,99.90
2022-07-27T03:06:22.855Z,99.90
2022-07-27T03:08:51.271Z,99.90
2022-07-27T03:11:19.579Z,99.90
2022-07-27T03:13:47.907Z,99.90
2022-07-27T03:16:16.253Z,99.90
2022-07-27T03:18:44.736Z,99.90
2022-07-27T03:21:14.657Z,99.90
2022-07-27T03:23:45.893Z,99.90
2022-07-27T03:26:14.179Z,99.90
2022-07-27T03:28:42.502Z,99.90
2022-07-27T03:31:10.937Z,99.90
2022-07-27T03:33:39.306Z,99.90
2022-07-27T03:36:08.306Z,99.90
2022-07-27T03:38:38.533Z,99.90
2022-07-27T03:41:10.007Z,99.90
2022-07-27T03:43:38.390Z,99.90
2022-07-27T03:46:07.058Z,99.90
2022-07-27T03:48:35.411Z,99.90
2022-07-27T03:51:04.736Z,99.90
2022-07-27T03:53:33.302Z,99.90
2022-07-27T03:56:02.953Z,99.90
2022-07-27T03:58:31.479Z,99.90
2022-07-27T04:00:59.837Z,99.90
2022-07-27T04:03:28.263Z,99.90
2022-07-27T04:05:56.604Z,99.90
2022-07-27T04:08:24.854Z,99.90
2022-07-27T04:10:53.169Z,99.90
2022-07-27T04:13:22.755Z,99.90
2022-07-27T04:15:51.299Z,99.90
2022-07-27T04:18:19.619Z,99.90
2022-07-27T04:20:47.899Z,99.90
2022-07-27T04:23:16.238Z,99.90
2022-07-27T04:25:44.553Z,99.90
2022-07-27T04:28:12.881Z,99.90
2022-07-27T04:30:42.574Z,99.90
2022-07-27T04:33:11.082Z,99.90
2022-07-27T04:35:39.423Z,99.90
2022-07-27T04:38:07.773Z,99.90
2022-07-27T04:40:36.771Z,99.90
2022-07-27T04:43:06.612Z,99.90
2022-07-27T04:45:36.109Z,99.90
2022-07-27T04:48:08.437Z,99.90
2022-07-27T04:50:41.101Z,99.90
2022-07-27T04:53:10.443Z,99.90
2022-07-27T04:55:38.950Z,99.90
2022-07-27T04:58:07.490Z,99.90
2022-07-27T05:00:35.829Z,99.90
2022-07-27T05:03:04.467Z,99.90
2022-07-27T05:05:34.267Z,99.90
2022-07-27T05:08:02.976Z,99.90
2022-07-27T05:10:31.414Z,99.90
2022-07-27T05:13:00.073Z,99.90
2022-07-27T05:15:54.024Z,99.90
2022-07-27T05:18:19.098Z,99.90
2022-07-27T05:20:48.768Z,99.90
2022-07-27T05:23:19.253Z,99.90
2022-07-27T05:25:47.539Z,99.90
2022-07-27T05:28:15.939Z,99.90
2022-07-27T05:30:44.254Z,99.90
2022-07-27T05:33:12.733Z,99.90
2022-07-27T05:35:40.967Z,99.90
2022-07-27T05:38:10.698Z,99.90
2022-07-27T05:40:39.070Z,99.90
2022-07-27T05:43:07.318Z,99.90
2022-07-27T05:45:35.656Z,99.90
2022-07-27T05:48:04.144Z,99.90
2022-07-27T05:50:32.385Z,98.60
2022-07-27T05:53:01.075Z,97.30
2022-07-27T05:55:30.928Z,96.50
2022-07-27T05:57:59.183Z,95.10
2022-07-27T06:00:27.711Z,95.20
2022-07-27T06:02:56.000Z,95.80
2022-07-27T06:05:24.270Z,96.50
2022-07-27T06:08:02.902Z,96.60
2022-07-27T06:10:34.644Z,97.20
2022-07-27T06:13:03.889Z,97.70
2022-07-27T06:15:32.347Z,97.40
2022-07-27T06:18:00.699Z,97.10
2022-07-27T06:20:29.210Z,97.10
2022-07-27T06:23:00.091Z,97.30
2022-07-27T06:25:34.151Z,96.90
2022-07-27T06:28:05.924Z,96.80
2022-07-27T06:30:34.484Z,97.10
2022-07-27T06:33:04.876Z,97.10
2022-07-27T06:35:34.706Z,97.10
2022-07-27T06:38:08.391Z,97.10
2022-07-27T06:40:37.083Z,97.30
2022-07-27T06:43:06.795Z,96.70
2022-07-27T06:45:35.241Z,96.70
2022-07-27T06:48:03.546Z,96.40
2022-07-27T06:50:31.969Z,96.40
2022-07-27T06:53:00.242Z,96.20
2022-07-27T06:55:28.729Z,96.10
2022-07-27T06:57:57.029Z,95.90
2022-07-27T07:00:26.921Z,96.60
2022-07-27T07:02:56.643Z,96.10
2022-07-27T07:05:25.619Z,96.20
2022-07-27T07:07:55.321Z,95.60
2022-07-27T07:10:24.775Z,95.10
2022-07-27T07:12:55.824Z,94.70
2022-07-27T07:15:27.277Z,95.30
2022-07-27T07:17:55.818Z,94.50
2022-07-27T07:20:24.647Z,93.90
2022-07-27T07:22:53.286Z,94.70
2022-07-27T07:25:21.990Z,94.60
2022-07-27T07:27:50.553Z,94.10
2022-07-27T07:30:19.219Z,93.40
2022-07-27T07:32:49.058Z,92.80
2022-07-27T07:35:17.945Z,93.20
2022-07-27T07:37:48.114Z,91.90
2022-07-27T07:43:08.117Z,92.10
2022-07-27T07:45:50.922Z,91.10
2022-07-27T07:48:22.830Z,90.70
2022-07-27T07:50:52.985Z,91.70
2022-07-27T07:53:23.321Z,92.00
2022-07-27T07:55:52.879Z,91.70
2022-07-27T07:58:21.510Z,91.30
2022-07-27T08:00:49.892Z,91.40
2022-07-27T08:03:19.105Z,91.40
2022-07-27T08:05:48.894Z,90.80
2022-07-27T08:08:17.822Z,89.40
2022-07-27T08:10:46.146Z,89.20
2022-07-27T08:13:21.557Z,85.80
2022-07-27T08:15:50.686Z,85.90
2022-07-27T08:18:19.023Z,85.50
2022-07-27T08:20:49.368Z,85.50
2022-07-27T08:23:17.669Z,87.20
2022-07-27T08:25:46.005Z,86.30
2022-07-27T08:28:14.212Z,87.80
2022-07-27T08:30:42.673Z,88.30
2022-07-27T08:33:11.887Z,87.50
2022-07-27T08:35:40.353Z,86.80
2022-07-27T08:38:10.774Z,86.20
2022-07-27T08:40:43.625Z,84.70
2022-07-27T08:43:21.767Z,86.00
2022-07-27T08:45:55.155Z,87.10
2022-07-27T08:48:25.102Z,86.70
2022-07-27T08:50:53.852Z,85.80
2022-07-27T08:53:24.593Z,86.50
2022-07-27T08:55:53.190Z,85.30
2022-07-27T08:58:21.467Z,84.40
2022-07-27T09:00:50.862Z,80.80
2022-07-27T09:03:22.146Z,80.90
2022-07-27T09:05:52.122Z,81.00
2022-07-27T09:08:24.273Z,81.70
2022-07-27T09:10:56.255Z,82.40
2022-07-27T09:13:27.450Z,81.60
2022-07-27T09:18:47.297Z,81.80
2022-07-27T09:21:18.045Z,78.00
2022-07-27T09:23:49.142Z,79.20
2022-07-27T09:26:31.799Z,78.70
2022-07-27T09:29:03.260Z,76.80
2022-07-27T09:31:32.454Z,76.50
2022-07-27T09:34:03.869Z,75.30
2022-07-27T09:36:32.373Z,75.70
2022-07-27T09:39:03.860Z,74.80
2022-07-27T09:41:45.996Z,73.00
2022-07-27T09:44:32.359Z,73.60
2022-07-27T09:47:01.702Z,74.70
2022-07-27T09:49:32.862Z,74.60
2022-07-27T09:52:02.938Z,74.10
2022-07-27T09:54:44.582Z,72.60
2022-07-27T09:57:14.321Z,68.60
2022-07-27T09:59:42.796Z,69.90
2022-07-27T10:02:14.112Z,69.90
2022-07-27T10:04:43.272Z,69.10
2022-07-27T10:07:13.887Z,67.70
2022-07-27T10:09:43.258Z,68.60
2022-07-27T10:12:13.102Z,67.80
2022-07-27T10:14:41.533Z,68.50
2022-07-27T10:17:12.956Z,69.70
2022-07-27T10:19:46.775Z,70.10
2022-07-27T10:22:15.245Z,70.00
2022-07-27T10:24:44.366Z,68.90
2022-07-27T10:27:28.072Z,67.30
2022-07-27T10:29:57.684Z,69.30
2022-07-27T10:32:27.244Z,69.10
2022-07-27T10:34:55.657Z,71.60
2022-07-27T10:37:29.196Z,68.60
2022-07-27T10:40:17.232Z,70.00
2022-07-27T10:42:54.019Z,71.70
2022-07-27T10:45:23.812Z,69.90
2022-07-27T10:47:53.399Z,70.00
2022-07-27T10:50:32.790Z,73.50
2022-07-27T10:53:05.467Z,73.10
2022-07-27T10:55:49.693Z,73.30
2022-07-27T10:58:51.297Z,72.40
2022-07-27T11:01:22.648Z,72.80
2022-07-27T11:03:55.971Z,70.80
2022-07-27T11:06:39.811Z,70.40
2022-07-27T11:12:05.642Z,70.20
2022-07-27T11:14:45.159Z,68.60
2022-07-27T11:20:03.913Z,68.10
2022-07-27T11:23:03.085Z,68.70
2022-07-27T11:25:23.310Z,68.50
2022-07-27T11:27:52.562Z,67.10
2022-07-27T11:30:27.698Z,66.40
2022-07-27T11:32:57.443Z,66.50
2022-07-27T11:35:25.761Z,68.00
2022-07-27T11:38:02.820Z,67.50
2022-07-27T11:43:38.220Z,65.40
2022-07-27T11:46:16.372Z,66.10
2022-07-27T11:49:06.207Z,67.10
2022-07-27T11:51:36.365Z,67.40
2022-07-27T11:54:06.987Z,67.80
2022-07-27T11:56:37.021Z,69.60
2022-07-27T11:59:16.157Z,69.30
2022-07-27T12:01:49.162Z,68.70
2022-07-27T12:04:21.494Z,66.90
2022-07-27T12:07:06.995Z,66.40
2022-07-27T12:09:38.737Z,67.00
2022-07-27T12:12:14.145Z,62.80
2022-07-27T12:14:45.886Z,63.90
2022-07-27T12:17:22.564Z,63.20
2022-07-27T12:19:59.226Z,63.60
2022-07-27T12:22:30.521Z,61.70
2022-07-27T12:25:00.123Z,61.70
2022-07-27T12:27:28.953Z,62.00
2022-07-27T12:30:10.391Z,61.80
2022-07-27T12:32:43.402Z,61.90
2022-07-27T12:35:25.881Z,61.20
2022-07-27T12:37:58.767Z,61.70
2022-07-27T12:40:27.453Z,63.30
2022-07-27T12:43:01.171Z,60.40
2022-07-27T12:45:33.662Z,62.30
2022-07-27T12:48:11.443Z,60.40
2022-07-27T12:50:41.875Z,61.00
2022-07-27T12:53:11.286Z,63.00
2022-07-27T12:55:40.716Z,61.70
2022-07-27T12:58:10.657Z,63.60
2022-07-27T13:00:39.634Z,61.00
2022-07-27T13:03:10.334Z,60.90
2022-07-27T13:05:38.638Z,62.50
2022-07-27T13:08:10.330Z,63.40
2022-07-27T13:10:39.629Z,62.50
2022-07-27T13:13:10.270Z,64.50
2022-07-27T13:15:38.634Z,62.50
2022-07-27T13:18:08.281Z,63.80
2022-07-27T13:20:38.295Z,61.10
2022-07-27T13:23:08.915Z,63.20
2022-07-27T13:25:43.134Z,61.80
2022-07-27T13:28:11.844Z,62.80
2022-07-27T13:30:40.425Z,64.00
2022-07-27T13:33:09.202Z,63.40
2022-07-27T13:35:38.965Z,62.80
2022-07-27T13:38:07.237Z,63.90
2022-07-27T13:40:35.537Z,64.60
2022-07-27T13:43:03.899Z,63.60
2022-07-27T13:45:42.787Z,64.60
2022-07-27T13:48:16.617Z,63.20
2022-07-27T13:50:46.303Z,63.90
2022-07-27T13:53:16.876Z,64.50
2022-07-27T13:55:45.630Z,66.00
2022-07-27T13:58:14.215Z,66.70
2022-07-27T14:00:42.946Z,65.60
2022-07-27T14:03:11.686Z,65.40
2022-07-27T14:05:48.736Z,65.50
2022-07-27T14:08:19.296Z,64.40
2022-07-27T14:10:47.926Z,64.20
2022-07-27T14:13:17.137Z,63.80
2022-07-27T14:15:53.055Z,65.90
2022-07-27T14:18:24.592Z,63.20
2022-07-27T14:20:53.312Z,63.60
2022-07-27T14:23:23.064Z,63.90
2022-07-27T14:25:51.680Z,64.00
2022-07-27T14:28:20.373Z,63.50
2022-07-27T14:30:48.979Z,64.90
2022-07-27T14:33:17.589Z,64.00
2022-07-27T14:35:46.027Z,65.20
2022-07-27T14:38:24.889Z,62.90
2022-07-27T14:41:01.639Z,61.30
2022-07-27T14:43:30.798Z,62.00
2022-07-27T14:46:00.134Z,60.30
2022-07-27T14:48:48.998Z,60.50
2022-07-27T14:51:16.929Z,60.40
2022-07-27T14:53:45.209Z,61.20
2022-07-27T14:56:14.918Z,61.40
2022-07-27T14:58:43.515Z,60.80
2022-07-27T15:01:11.864Z,61.50
2022-07-27T15:03:40.329Z,62.50
2022-07-27T15:06:09.853Z,64.40
2022-07-27T15:08:38.191Z,63.70
2022-07-27T15:11:07.512Z,63.00
2022-07-27T15:13:37.117Z,62.40
2022-07-27T15:16:09.006Z,62.90
2022-07-27T15:18:39.053Z,61.30
2022-07-27T15:21:12.632Z,61.10
2022-07-27T15:23:44.209Z,62.80
2022-07-27T15:26:13.553Z,62.80
2022-07-27T15:28:43.814Z,62.20
2022-07-27T15:31:13.377Z,62.80
2022-07-27T15:33:42.128Z,62.50
2022-07-27T15:36:11.619Z,62.50
2022-07-27T15:39:00.110Z,63.60
2022-07-27T15:41:28.582Z,63.20
2022-07-27T15:43:59.937Z,63.70
2022-07-27T15:46:28.535Z,61.90
2022-07-27T15:48:57.109Z,62.10
2022-07-27T15:51:26.148Z,59.00
2022-07-27T15:53:55.851Z,58.70
2022-07-27T15:56:24.396Z,59.80
2022-07-27T15:58:52.723Z,60.00
2022-07-27T16:01:22.513Z,58.20
2022-07-27T16:04:03.588Z,58.10
2022-07-27T16:06:38.270Z,58.60
2022-07-27T16:09:09.145Z,58.60
2022-07-27T16:11:38.077Z,58.60
2022-07-27T16:14:06.394Z,58.70
2022-07-27T16:16:36.039Z,61.20
2022-07-27T16:19:13.211Z,60.80
2022-07-27T16:21:54.848Z,63.00
2022-07-27T16:24:25.303Z,61.50
2022-07-27T16:26:54.353Z,63.20
2022-07-27T16:29:22.919Z,63.30
2022-07-27T16:31:57.898Z,63.00
2022-07-27T16:34:26.715Z,64.20
2022-07-27T16:36:55.258Z,63.60
2022-07-27T16:39:23.666Z,59.30
2022-07-27T16:41:54.997Z,61.80
2022-07-27T16:44:23.466Z,61.00
2022-07-27T16:46:53.205Z,61.80
2022-07-27T16:49:21.657Z,61.60
2022-07-27T16:52:01.718Z,63.50
2022-07-27T16:54:31.414Z,61.70
2022-07-27T16:57:01.453Z,62.10
2022-07-27T16:59:29.759Z,61.70
2022-07-27T17:01:59.602Z,62.40
2022-07-27T17:04:28.433Z,62.50
2022-07-27T17:06:56.829Z,63.40
2022-07-27T17:09:25.135Z,62.00
2022-07-27T17:11:53.791Z,61.30
2022-07-27T17:14:23.981Z,61.50
2022-07-27T17:16:52.730Z,60.20
2022-07-27T17:19:22.553Z,61.60
2022-07-27T17:21:50.933Z,61.60
2022-07-27T17:24:19.338Z,60.90
2022-07-27T17:26:47.721Z,61.70
2022-07-27T17:29:16.567Z,60.90
2022-07-27T17:31:45.139Z,62.30
2022-07-27T17:34:13.489Z,61.80
2022-07-27T17:36:43.161Z,61.30
2022-07-27T17:39:12.009Z,63.30
2022-07-27T17:41:40.611Z,63.40
2022-07-27T17:44:09.975Z,63.40
2022-07-27T17:46:39.303Z,62.60
2022-07-27T17:49:07.678Z,62.70
2022-07-27T17:51:36.131Z,64.00
2022-07-27T17:54:06.301Z,63.60
2022-07-27T17:56:35.298Z,64.10
2022-07-27T17:59:20.462Z,63.40
2022-07-27T18:01:52.089Z,64.20
2022-07-27T18:04:20.482Z,64.50
2022-07-27T18:06:48.855Z,64.10
2022-07-27T18:09:18.538Z,65.90
2022-07-27T18:11:47.041Z,66.00
2022-07-27T18:14:15.369Z,66.20
2022-07-27T18:16:43.731Z,64.30
2022-07-27T18:19:13.656Z,65.00
2022-07-27T18:21:42.162Z,65.70
2022-07-27T18:24:10.735Z,65.20
2022-07-27T18:26:40.463Z,64.50
2022-07-27T18:29:09.723Z,65.10
2022-07-27T18:31:38.760Z,65.50
2022-07-27T18:34:12.437Z,66.80
2022-07-27T18:36:42.411Z,68.00
2022-07-27T18:39:11.060Z,68.20
2022-07-27T18:41:41.172Z,67.80
2022-07-27T18:44:09.497Z,68.80
2022-07-27T18:46:37.996Z,68.40
2022-07-27T18:49:06.431Z,68.90
2022-07-27T18:51:37.226Z,70.10
2022-07-27T18:54:05.767Z,69.70
2022-07-27T18:56:34.122Z,70.30
2022-07-27T18:59:03.871Z,71.20
2022-07-27T19:01:32.455Z,71.90
2022-07-27T19:04:00.795Z,70.90
2022-07-27T19:06:31.100Z,72.50
2022-07-27T19:08:59.293Z,73.40
2022-07-27T19:11:27.662Z,73.90
2022-07-27T19:13:57.815Z,74.60
2022-07-27T19:16:27.729Z,74.90
2022-07-27T19:18:56.387Z,75.80
2022-07-27T19:21:24.774Z,76.20
2022-07-27T19:23:53.178Z,76.60
2022-07-27T19:26:21.671Z,77.10
2022-07-27T19:28:50.357Z,77.80
2022-07-27T19:31:23.404Z,77.60
2022-07-27T19:33:53.706Z,77.80
2022-07-27T19:36:23.153Z,78.20
2022-07-27T19:38:52.754Z,78.40
2022-07-27T19:41:21.123Z,79.10
2022-07-27T19:43:49.887Z,79.90
2022-07-27T19:46:18.295Z,80.10
2022-07-27T19:48:46.691Z,79.80
2022-07-27T19:51:16.903Z,80.60
2022-07-27T19:53:45.331Z,80.60
2022-07-27T19:56:13.790Z,81.10
2022-07-27T19:58:42.492Z,81.80
2022-07-27T20:01:11.597Z,82.00
2022-07-27T20:03:54.172Z,82.70
2022-07-27T20:06:25.147Z,82.40
2022-07-27T20:08:55.967Z,82.80
2022-07-27T20:11:24.523Z,83.30
2022-07-27T20:13:52.933Z,83.60
2022-07-27T20:16:21.495Z,84.60
2022-07-27T20:18:49.883Z,85.00
2022-07-27T20:21:23.084Z,84.90
2022-07-27T20:23:54.526Z,85.40
2022-07-27T20:26:22.947Z,85.70
2022-07-27T20:28:51.223Z,85.50
2022-07-27T20:31:20.182Z,85.60
2022-07-27T20:33:48.615Z,85.80
2022-07-27T20:36:16.901Z,86.10
2022-07-27T20:38:45.353Z,86.00
2022-07-27T20:41:15.190Z,86.00
2022-07-27T20:43:44.392Z,86.80
2022-07-27T20:46:13.857Z,86.40
2022-07-27T20:48:44.402Z,86.90
2022-07-27T20:51:12.789Z,87.00
2022-07-27T20:53:41.221Z,87.60
2022-07-27T20:56:09.750Z,88.40
2022-07-27T20:58:39.456Z,88.50
2022-07-27T21:01:07.919Z,88.60
2022-07-27T21:03:36.277Z,88.90
2022-07-27T21:06:04.992Z,89.20
2022-07-27T21:08:33.420Z,88.70
2022-07-27T21:11:01.751Z,88.80
2022-07-27T21:13:30.085Z,89.00
2022-07-27T21:15:59.877Z,89.10
2022-07-27T21:18:29.023Z,89.10
2022-07-27T21:20:57.357Z,89.50
2022-07-27T21:23:43.220Z,89.50
2022-07-27T21:26:11.554Z,89.80
2022-07-27T21:28:45.054Z,89.50
2022-07-27T21:31:14.761Z,89.20
2022-07-27T21:33:43.171Z,89.50
2022-07-27T21:36:11.589Z,89.00
2022-07-27T21:38:39.969Z,89.20
2022-07-27T21:41:09.461Z,89.10
2022-07-27T21:43:37.791Z,89.20
2022-07-27T21:46:06.106Z,89.70
2022-07-27T21:48:35.937Z,90.00
2022-07-27T21:51:04.508Z,89.80
2022-07-27T21:53:33.979Z,90.00
2022-07-27T21:56:02.669Z,90.60
2022-07-27T21:58:30.984Z,90.30
2022-07-27T22:00:59.486Z,90.50
2022-07-27T22:03:27.831Z,90.50
2022-07-27T22:05:57.669Z,90.50
2022-07-27T22:08:26.906Z,90.80
2022-07-27T22:10:55.259Z,90.90
2022-07-27T22:13:24.561Z,90.70
2022-07-27T22:15:53.574Z,90.80
2022-07-27T22:18:22.390Z,91.00
2022-07-27T22:20:50.783Z,91.10
2022-07-27T22:23:20.490Z,90.90
2022-07-27T22:25:48.843Z,90.90
2022-07-27T22:28:17.095Z,91.00
2022-07-27T22:31:19.788Z,91.10
2022-07-27T22:33:33.930Z,91.10
2022-07-27T22:36:02.282Z,91.20
2022-07-27T22:38:33.035Z,91.30
2022-07-27T22:41:01.568Z,91.60
2022-07-27T22:43:29.847Z,91.60
2022-07-27T22:45:58.629Z,91.70
2022-07-27T22:48:27.227Z,91.80
2022-07-27T22:50:56.585Z,92.20
2022-07-27T22:53:24.950Z,92.50
2022-07-27T22:55:54.814Z,92.50
2022-07-27T22:58:23.302Z,92.30
2022-07-27T23:00:54.663Z,92.10
2022-07-27T23:03:25.736Z,92.10
2022-07-27T23:05:54.073Z,92.20
2022-07-27T23:08:22.504Z,92.30
2022-07-27T23:10:50.821Z,92.40
2022-07-27T23:13:22.916Z,92.50
2022-07-27T23:15:51.466Z,92.40
2022-07-27T23:18:20.728Z,92.50
2022-07-27T23:20:49.088Z,92.80
2022-07-27T23:23:17.363Z,92.80
2022-07-27T23:25:45.936Z,92.70
2022-07-27T23:28:16.077Z,92.80
2022-07-27T23:30:45.851Z,92.60
2022-07-27T23:33:14.210Z,92.60
2022-07-27T23:35:42.545Z,92.70
2022-07-27T23:38:11.183Z,92.70
2022-07-27T23:40:39.463Z,92.50
2022-07-27T23:43:08.755Z,92.50
2022-07-27T23:45:37.052Z,92.50
2022-07-27T23:48:06.984Z,92.60
2022-07-27T23:50:35.639Z,92.80
2022-07-27T23:53:03.903Z,92.90
2022-07-27T23:55:34.483Z,93.10
2022-07-27T23:58:02.678Z,93.10
